createdAt,value
2023-02-23T00:04:27.126Z,999.86
2023-02-23T00:09:27.092Z,999.82
2023-02-23T00:14:27.013Z,999.79
2023-02-23T00:19:26.944Z,999.70
2023-02-23T00:24:26.995Z,999.80
2023-02-23T00:29:26.827Z,999.82
2023-02-23T00:34:26.761Z,999.79
2023-02-23T00:39:26.782Z,999.76
2023-02-23T00:44:26.630Z,999.75
2023-02-23T00:49:26.608Z,999.81
2023-02-23T00:54:26.514Z,999.85
2023-02-23T00:59:26.427Z,999.79
2023-02-23T01:04:26.409Z,999.78
2023-02-23T01:09:26.284Z,999.80
2023-02-23T01:14:26.290Z,999.70
2023-02-23T01:19:26.167Z,999.79
2023-02-23T01:24:26.130Z,999.78
2023-02-23T01:29:26.028Z,999.63
2023-02-23T01:34:25.949Z,999.69
2023-02-23T01:39:25.897Z,999.66
2023-02-23T01:44:25.822Z,999.52
2023-02-23T01:49:25.769Z,999.48
2023-02-23T01:54:25.687Z,999.43
2023-02-23T01:59:25.620Z,999.36
2023-02-23T02:04:25.572Z,999.32
2023-02-23T02:09:25.494Z,999.22
2023-02-23T02:14:25.429Z,999.30
2023-02-23T02:19:25.369Z,999.23
2023-02-23T02:24:25.329Z,999.23
2023-02-23T02:29:29.370Z,999.17
2023-02-23T02:34:25.190Z,999.18
2023-02-23T02:39:25.105Z,999.16
2023-02-23T02:44:25.039Z,999.09
2023-02-23T02:49:24.972Z,999.21
2023-02-23T02:54:24.949Z,999.20
2023-02-23T02:59:24.863Z,999.22
2023-02-23T03:04:24.774Z,999.11
2023-02-23T03:09:24.707Z,998.92
2023-02-23T03:14:24.680Z,998.89
2023-02-23T03:19:24.612Z,998.95
2023-02-23T03:24:24.554Z,999.05
2023-02-23T03:29:24.482Z,998.99
2023-02-23T03:34:24.399Z,999.00
2023-02-23T03:39:24.352Z,998.90
2023-02-23T03:44:24.269Z,998.89
2023-02-23T03:49:24.204Z,998.84
2023-02-23T03:54:24.139Z,998.87
2023-02-23T03:59:24.056Z,998.92
2023-02-23T04:04:24.009Z,998.99
2023-02-23T04:09:23.940Z,998.97
2023-02-23T04:14:23.870Z,999.08
2023-02-23T04:19:23.804Z,999.21
2023-02-23T04:24:23.717Z,999.15
2023-02-23T04:29:23.660Z,999.14
2023-02-23T04:34:23.609Z,999.16
2023-02-23T04:39:23.528Z,999.26
2023-02-23T04:44:23.470Z,999.16
2023-02-23T04:49:23.393Z,999.12
2023-02-23T04:54:23.344Z,999.07
2023-02-23T04:59:23.273Z,999.04
2023-02-23T05:04:23.215Z,998.99
2023-02-23T05:09:23.158Z,999.13
2023-02-23T05:14:23.073Z,998.93
2023-02-23T05:19:23.034Z,999.06
2023-02-23T05:24:22.980Z,999.11
2023-02-23T05:29:22.864Z,999.06
2023-02-23T05:34:22.815Z,999.15
2023-02-23T05:39:22.740Z,999.07
2023-02-23T05:44:22.683Z,999.12
2023-02-23T05:49:22.614Z,999.11
2023-02-23T05:54:22.550Z,999.15
2023-02-23T05:59:22.505Z,999.17
2023-02-23T06:04:22.403Z,999.22
2023-02-23T06:09:22.349Z,999.24
2023-02-23T06:14:22.290Z,999.31
2023-02-23T06:19:22.223Z,999.38
2023-02-23T06:24:22.194Z,999.32
2023-02-23T06:29:22.077Z,999.47
2023-02-23T06:34:22.040Z,999.52
2023-02-23T06:39:21.952Z,999.55
2023-02-23T06:44:21.876Z,999.53
2023-02-23T06:49:21.814Z,999.60
2023-02-23T06:54:21.765Z,999.57
2023-02-23T06:59:21.675Z,999.45
2023-02-23T07:04:21.705Z,999.57
2023-02-23T07:09:21.558Z,999.61
2023-02-23T07:14:26.717Z,999.58
2023-02-23T07:19:22.480Z,999.56
2023-02-23T07:24:21.370Z,999.55
2023-02-23T07:29:21.314Z,999.59
2023-02-23T07:34:21.267Z,999.52
2023-02-23T07:39:21.162Z,999.56
2023-02-23T07:44:21.125Z,999.59
2023-02-23T07:49:21.057Z,999.65
2023-02-23T07:54:20.993Z,999.55
2023-02-23T07:59:20.999Z,999.63
2023-02-23T08:04:20.894Z,999.78
2023-02-23T08:09:20.788Z,999.66
2023-02-23T08:14:20.766Z,999.80
2023-02-23T08:19:20.649Z,999.72
2023-02-23T08:24:20.623Z,999.71
2023-02-23T08:29:20.527Z,999.73
2023-02-23T08:34:20.467Z,999.64
2023-02-23T08:39:20.387Z,999.72
2023-02-23T08:44:20.341Z,999.74
2023-02-23T08:49:20.271Z,999.70
2023-02-23T08:54:20.192Z,999.61
2023-02-23T08:59:20.114Z,999.63
2023-02-23T09:04:20.075Z,999.61
2023-02-23T09:09:19.991Z,999.64
2023-02-23T09:14:19.965Z,999.66
2023-02-23T09:19:19.857Z,999.83
2023-02-23T09:24:19.796Z,999.72
2023-02-23T09:29:19.718Z,999.70
2023-02-23T09:34:19.696Z,999.67
2023-02-23T09:39:29.137Z,999.61
2023-02-23T09:44:20.552Z,999.65
2023-02-23T09:49:19.434Z,999.67
2023-02-23T09:54:19.380Z,999.68
2023-02-23T09:59:19.335Z,999.70
2023-02-23T10:04:19.266Z,999.66
2023-02-23T10:09:19.218Z,999.67
2023-02-23T10:14:19.158Z,999.66
2023-02-23T10:19:19.043Z,999.58
2023-02-23T10:24:18.988Z,999.62
2023-02-23T10:29:18.938Z,999.44
2023-02-23T10:34:18.870Z,999.41
2023-02-23T10:39:18.805Z,999.46
2023-02-23T10:44:18.736Z,999.52
2023-02-23T10:49:18.671Z,999.42
2023-02-23T10:54:18.633Z,999.41
2023-02-23T10:59:18.564Z,999.39
2023-02-23T11:04:19.064Z,999.33
2023-02-23T11:09:18.461Z,999.27
2023-02-23T11:14:18.349Z,999.11
2023-02-23T11:19:18.301Z,999.13
2023-02-23T11:24:18.244Z,999.00
2023-02-23T11:29:18.139Z,999.01
2023-02-23T11:34:18.113Z,998.98
2023-02-23T11:39:18.043Z,998.87
2023-02-23T11:44:18.001Z,998.83
2023-02-23T11:49:17.890Z,998.71
2023-02-23T11:54:17.827Z,998.68
2023-02-23T11:59:17.754Z,998.63
2023-02-23T12:04:17.686Z,998.72
2023-02-23T12:09:17.604Z,998.63
2023-02-23T12:14:17.546Z,998.66
2023-02-23T12:19:17.482Z,998.51
2023-02-23T12:24:17.405Z,998.50
2023-02-23T12:29:17.334Z,998.51
2023-02-23T12:34:17.311Z,998.41
2023-02-23T12:39:17.203Z,998.40
2023-02-23T12:44:17.153Z,998.33
2023-02-23T12:49:17.113Z,998.24
2023-02-23T12:54:17.005Z,998.26
2023-02-23T12:59:16.961Z,998.25
2023-02-23T13:04:16.889Z,998.12
2023-02-23T13:09:16.838Z,998.06
2023-02-23T13:14:16.775Z,998.11
2023-02-23T13:19:16.704Z,998.09
2023-02-23T13:24:16.670Z,998.15
2023-02-23T13:29:16.577Z,998.14
2023-02-23T13:34:16.509Z,998.12
2023-02-23T13:39:18.996Z,998.12
2023-02-23T13:44:16.411Z,998.05
2023-02-23T13:49:16.303Z,998.02
2023-02-23T13:54:16.254Z,998.04
2023-02-23T13:59:16.213Z,997.98
2023-02-23T14:04:16.112Z,998.17
2023-02-23T14:09:16.046Z,998.09
2023-02-23T14:14:15.981Z,998.03
2023-02-23T14:19:15.898Z,998.00
2023-02-23T14:24:15.881Z,997.99
2023-02-23T14:29:15.809Z,998.05
2023-02-23T14:34:15.740Z,997.97
2023-02-23T14:39:15.636Z,998.06
2023-02-23T14:44:28.350Z,998.09
2023-02-23T14:49:16.536Z,998.06
2023-02-23T14:54:15.506Z,998.09
2023-02-23T14:59:15.623Z,998.07
2023-02-23T15:04:15.414Z,998.03
2023-02-23T15:09:15.272Z,998.13
2023-02-23T15:14:26.826Z,998.18
2023-02-23T15:19:16.112Z,998.13
2023-02-23T15:24:15.048Z,998.09
2023-02-23T15:29:14.987Z,998.05
2023-02-23T15:34:14.923Z,998.01
2023-02-23T15:39:14.852Z,998.05
2023-02-23T15:44:14.809Z,998.01
2023-02-23T15:49:14.780Z,998.02
2023-02-23T15:54:14.674Z,998.02
2023-02-23T15:59:14.631Z,998.09
2023-02-23T16:04:14.577Z,998.08
2023-02-23T16:09:14.498Z,998.17
2023-02-23T16:14:14.409Z,998.24
2023-02-23T16:19:14.339Z,998.13
2023-02-23T16:24:14.292Z,998.15
2023-02-23T16:29:14.253Z,998.11
2023-02-23T16:34:14.205Z,998.15
2023-02-23T16:39:14.072Z,998.08
2023-02-23T16:44:14.016Z,998.06
2023-02-23T16:49:13.945Z,998.10
2023-02-23T16:54:13.931Z,998.02
2023-02-23T16:59:13.863Z,997.99
2023-02-23T17:04:13.777Z,998.21
2023-02-23T17:09:13.834Z,998.24
2023-02-23T17:14:13.639Z,998.26
2023-02-23T17:19:13.545Z,998.15
2023-02-23T17:24:13.521Z,998.18
2023-02-23T17:29:13.439Z,998.28
2023-02-23T17:34:13.399Z,998.28
2023-02-23T17:39:13.297Z,998.35
2023-02-23T17:44:13.640Z,998.29
2023-02-23T17:49:13.139Z,998.17
2023-02-23T17:54:13.198Z,998.29
2023-02-23T17:59:13.035Z,998.22
2023-02-23T18:04:12.991Z,998.28
2023-02-23T18:09:12.889Z,998.27
2023-02-23T18:14:12.864Z,998.31
2023-02-23T18:19:12.753Z,998.31
2023-02-23T18:24:12.803Z,998.16
2023-02-23T18:29:12.679Z,998.14
2023-02-23T18:34:12.579Z,998.16
2023-02-23T18:39:12.489Z,998.10
2023-02-23T18:44:12.413Z,998.16
2023-02-23T18:49:12.373Z,998.14
2023-02-23T18:54:12.305Z,998.13
2023-02-23T18:59:12.213Z,998.23
2023-02-23T19:04:12.163Z,998.11
2023-02-23T19:09:12.101Z,998.13
2023-02-23T19:14:12.040Z,998.10
2023-02-23T19:19:11.995Z,998.15
2023-02-23T19:24:11.926Z,998.12
2023-02-23T19:29:11.908Z,998.04
2023-02-23T19:34:11.780Z,998.06
2023-02-23T19:39:11.714Z,998.04
2023-02-23T19:44:11.672Z,998.05
2023-02-23T19:49:11.596Z,997.96
2023-02-23T19:54:11.536Z,997.97
2023-02-23T19:59:11.509Z,998.03
2023-02-23T20:04:11.395Z,997.99
2023-02-23T20:09:11.447Z,997.96
2023-02-23T20:14:11.272Z,997.86
2023-02-23T20:19:11.292Z,997.88
2023-02-23T20:24:11.149Z,997.85
2023-02-23T20:29:11.440Z,997.91
2023-02-23T20:34:11.131Z,997.85
2023-02-23T20:39:10.904Z,997.85
2023-02-23T20:44:10.978Z,997.78
2023-02-23T20:49:10.791Z,997.69
2023-02-23T20:54:10.778Z,997.65
2023-02-23T20:59:10.663Z,997.66
2023-02-23T21:04:10.624Z,997.68
2023-02-23T21:09:10.527Z,997.62
2023-02-23T21:14:10.452Z,997.50
2023-02-23T21:19:11.413Z,997.53
2023-02-23T21:24:10.332Z,997.61
2023-02-23T21:29:10.254Z,997.52
2023-02-23T21:34:10.203Z,997.44
2023-02-23T21:39:10.169Z,997.42
2023-02-23T21:44:10.088Z,997.33
2023-02-23T21:49:10.155Z,997.31
2023-02-23T21:54:09.966Z,997.33
2023-02-23T21:59:09.868Z,997.29
2023-02-23T22:04:09.810Z,997.33
2023-02-23T22:09:09.765Z,997.37
2023-02-23T22:14:09.687Z,997.32
2023-02-23T22:19:09.700Z,997.33
2023-02-23T22:24:09.542Z,997.28
2023-02-23T22:29:09.513Z,997.27
2023-02-23T22:34:09.400Z,997.33
2023-02-23T22:39:09.345Z,997.27
2023-02-23T22:44:09.313Z,997.22
2023-02-23T22:49:09.206Z,997.23
2023-02-23T22:54:13.197Z,997.19
2023-02-23T22:59:09.093Z,997.17
2023-02-23T23:04:09.075Z,997.15
2023-02-23T23:09:08.962Z,997.12
2023-02-23T23:14:08.857Z,997.12
2023-02-23T23:19:08.864Z,997.02
2023-02-23T23:24:08.757Z,996.93
2023-02-23T23:29:08.685Z,996.98
2023-02-23T23:34:08.601Z,996.89
2023-02-23T23:39:08.559Z,996.95
2023-02-23T23:44:08.473Z,997.04
2023-02-23T23:49:08.396Z,997.04
2023-02-23T23:54:08.375Z,996.98
2023-02-23T23:59:08.248Z,996.89
